Weather observations for the past three days for
Scottsdale Airport
Metric (Imperial)
Date Time (mst) Wind (kph) Vis. (km) Weather Sky Cond. Temperature (ºC) Relative Humidity Wind Chill (°C) Heat Index (°C) Pressure Precipitation (cm)
Air Dwpt 6 hour altimeter (cm) sea level (mb) 1 hr 3 hr 6 hr
Max. Min.
04 19:53 W 11 16.09 Fair CLR 23.3 7.8 37% 75.87 1009.4
04 18:53 W 13 16.09 Fair CLR 23.9 6.7 33% 25 75.84 1009.0
04 17:53 Calm 16.09 Fair CLR 24.4 6.7 32% 25 75.82 1008.9
04 16:53 W 13 16.09 Fair CLR 25 6.7 25 22.2 31% 25 75.87 1009.3
04 15:53 SW 6 16.09 Fair CLR 24.4 7.2 33% 25 75.84 1009.2
04 14:53 SW 17 16.09 Fair CLR 25 7.2 32% 25 75.92 1010.0
04 13:53 W 15 16.09 Fair CLR 24.4 7.8 35% 25 75.97 1010.8
04 12:53 S 9 16.09 Fair CLR 23.9 8.9 39% 25 75.95 1010.4
04 11:53 Calm 16.09 Fair CLR 22.8 8.9 41% 75.97 1010.7
04 10:53 W 15 16.09 Fair CLR 22.2 9.4 22.8 21.1 44% 76.02 1011.4
04 09:53 W 13 16.09 Fair CLR 22.2 8.9 43% 76 1011.2
04 08:53 W 13 16.09 Fair CLR 22.8 7.2 37% 75.97 1010.7
04 07:53 Calm 16.09 Fair CLR 22.2 8.9 43% 75.92 1009.8
04 06:53 Calm 16.09 Fair CLR 22.2 7.8 40% 75.9 1009.6
04 05:53 Calm 16.09 Fair CLR 22.2 7.2 38% 75.9 1009.3
04 04:53 Calm 16.09 Fair CLR 22.8 6.7 26.7 22.8 35% 75.82 1008.3
04 03:53 Calm 16.09 Fair CLR 23.3 6.7 34% 75.84 1008.4
04 02:53 W 6 16.09 Fair CLR 23.9 7.2 34% 25 75.87 1008.7
04 01:53 Calm 16.09 Fair CLR 23.9 6.1 32% 25 75.79 1007.9
04 00:53 S 9 16.09 Fair CLR 24.4 6.1 31% 25 75.82 1008.0
03 23:53 Calm 16.09 Fair CLR 25.6 3.9 25% 25 75.82 1008.0
03 22:53 W 11 16.09 Fair CLR 26.7 2.8 34.4 26.7 21% 26 75.79 1008.1
03 21:53 W 13 16.09 Light Rain CLR 27.2 0.6 18% 26 75.79 1008.0
03 20:53 W 20 G 31 16.09 Light Rain CLR 28.3 -0.6 15% 27 75.74 1007.2
03 19:53 W 15 16.09 Light Rain CLR 30 -2.2 12% 28 75.62 1005.6
03 18:53 W 22 G 43 16.09 Light Rain CLR 31.1 0 13% 29 75.54 1004.6
03 17:53 W 28 G 48 16.09 Fair CLR 32.8 -0.6 12% 30 75.51 1004.1
03 16:53 W 7 G 30 16.09 Fair CLR 34.4 -1.1 35 30.6 10% 32 75.51 1003.8
03 15:53 Calm 16.09 Fair CLR 33.9 -0.6 11% 31 75.57 1004.6
03 14:53 S 19 G 35 16.09 Fair CLR 34.4 1.1 12% 32 75.64 1005.6
03 13:53 S 11 G 37 16.09 Fair CLR 33.3 2.2 14% 31 75.72 1006.6
03 12:53 S 17 G 35 16.09 Fair CLR 33.3 5.6 18% 31 75.79 1007.7
03 11:53 S 15 G 31 16.09 Fair CLR 32.2 2.8 15% 30 75.84 1008.6
03 10:53 E 17 G 28 16.09 Fair CLR 30 4.4 30 26.1 20% 28 75.9 1009.4
03 09:53 E 17 16.09 Fair CLR 28.9 5.6 23% 27 75.95 1009.8
03 08:53 E 15 16.09 Fair CLR 27.8 6.1 25% 27 75.92 1009.6
03 07:53 E 19 G 31 16.09 Fair CLR 26.7 5.6 26% 26 75.92 1009.4
03 06:53 E 11 G 31 16.09 Fair CLR 26.7 5.6 26% 26 75.92 1009.4
03 05:53 E 11 16.09 Fair CLR 26.1 5 26% 26 75.87 1008.8
03 04:53 E 15 16.09 Fair CLR 26.7 4.4 27.2 25 24% 26 75.84 1008.4
03 03:53 E 13 16.09 Fair CLR 27.2 4.4 23% 26 75.84 1008.4
03 02:53 E 13 16.09 Fair CLR 27.2 4.4 23% 26 75.82 1008.2
03 01:53 E 13 16.09 Fair CLR 27.2 2.8 21% 26 75.84 1008.6
03 00:53 Calm 16.09 Fair CLR 25 2.2 23% 25 75.87 1009.1
02 23:53 Calm 16.09 Fair CLR 25.6 0.6 19% 25 75.87 1009.0
02 22:53 NE 7 16.09 Fair CLR 26.7 0.6 32.2 26.7 18% 26 75.84 1008.8
02 21:53 Calm 16.09 Fair CLR 27.2 0.6 18% 26 75.84 1008.7
02 20:53 N 7 16.09 Fair CLR 29.4 0 15% 28 75.79 1007.9
02 19:53 Calm 16.09 Fair CLR 30.6 -1.1 13% 29 75.77 1007.6
02 18:53 Calm 16.09 Fair CLR 31.1 -1.1 12% 29 75.74 1007.5
02 17:53 SW 11 16.09 Fair CLR 31.7 -0.6 12% 30 75.77 1007.7
02 16:53 SW 9 16.09 Fair CLR 32.2 0 33.3 29.4 13% 30 75.79 1007.8
02 15:53 Vrbl 7 16.09 Fair CLR 32.8 0.6 13% 30 75.79 1008.0
02 14:53 Calm 16.09 Fair CLR 32.2 0 13% 30 75.87 1008.8
02 13:53 Vrbl 6 16.09 Partly Cloudy SCT110 31.7 1.7 15% 30 75.95 1009.7
02 12:53 SW 7 16.09 Fair CLR 31.1 2.8 16% 29 76 1010.5
02 11:53 E 13 16.09 Fair CLR 31.1 3.3 17% 29 76.05 1011.6
02 10:53 SE 15 G 28 16.09 Fair CLR 29.4 3.9 30 22.2 20% 28 76.12 1012.4
02 09:53 E 17 16.09 Fair CLR 28.3 5 23% 27 76.12 1012.6
02 08:53 E 19 G 31 16.09 Fair CLR 27.2 5.6 25% 26 76.12 1012.3
02 07:53 SE 7 16.09 Fair CLR 26.1 0.6 19% 26 76.07 1011.8
02 06:53 Calm 16.09 Fair CLR 22.8 1.1 24% 76.05 1011.4
02 05:53 Vrbl 6 16.09 Fair CLR 23.9 -1.1 19% 24 75.95 1010.1
02 04:53 NE 15 16.09 Fair CLR 24.4 -1.7 26.1 23.3 18% 25 75.9 1009.5
02 03:53 Calm 16.09 Fair CLR 23.9 -1.1 19% 24 75.9 1009.3
02 02:53 E 6 16.09 Fair CLR 25.6 -1.7 16% 25 75.87 1009.1
02 01:53 E 7 16.09 Fair CLR 25.6 -0.6 18% 25 75.87 1009.1
02 00:53 E 13 16.09 Fair CLR 26.1 -1.1 17% 25 75.87 1009.0
01 23:53 E 6 16.09 Fair CLR 24.4 1.7 23% 25 75.84 1008.8
01 22:53 E 6 16.09 Fair CLR 25 2.2 31.1 25 23% 25 75.82 1008.4
01 21:53 E 6 16.09 Fair CLR 26.1 2.2 21% 26 75.79 1008.2
Date Time (mst) Wind (kph) Vis. (km) Weather Sky Cond. Air Dwpt Max. Min. Relative Humidity Wind Chill (°C) Heat Index (°C) altimeter (cm) sea level (mb) 1 hr 3 hr 6 hr
6 hour
Temperature (ºC) Pressure Precipitation (cm)